createdAt,value
2019-05-17T00:02:17.609Z,40.92
2019-05-17T00:04:47.273Z,30.92
2019-05-17T00:07:16.949Z,40.92
2019-05-17T00:09:47.880Z,44.93
2019-05-17T00:12:17.616Z,41.98
2019-05-17T00:14:47.413Z,43.58
2019-05-17T00:17:17.505Z,41.80
2019-05-17T00:19:47.222Z,42.48
2019-05-17T00:22:16.938Z,45.25
2019-05-17T00:24:47.720Z,43.20
2019-05-17T00:27:17.475Z,42.23
2019-05-17T00:29:47.115Z,44.55
2019-05-17T00:32:17.256Z,40.70
2019-05-17T00:34:47.158Z,46.48
2019-05-17T00:37:17.428Z,43.15
2019-05-17T00:39:47.326Z,42.60
2019-05-17T00:42:17.266Z,40.17
2019-05-17T00:44:47.499Z,58.13
2019-05-17T00:47:17.322Z,45.67
2019-05-17T00:49:46.900Z,44.50
2019-05-17T00:52:16.834Z,46.33
2019-05-17T00:54:46.918Z,41.68
2019-05-17T00:57:16.787Z,42.85
2019-05-17T00:59:47.594Z,43.80
2019-05-17T01:02:17.390Z,38.23
2019-05-17T01:04:47.592Z,34.90
2019-05-17T01:07:17.846Z,33.20
2019-05-17T01:09:47.506Z,27.82
2019-05-17T01:12:17.169Z,23.38
2019-05-17T01:14:46.817Z,28.50
2019-05-17T01:17:16.713Z,31.25
2019-05-17T01:19:47.243Z,32.38
2019-05-17T01:22:17.087Z,33.28
2019-05-17T01:24:46.970Z,37.38
2019-05-17T01:27:17.193Z,34.38
2019-05-17T01:29:46.952Z,36.20
2019-05-17T01:32:17.929Z,29.75
2019-05-17T01:34:47.670Z,30.15
2019-05-17T01:37:17.392Z,30.45
2019-05-17T01:39:48.484Z,31.10
2019-05-17T01:42:18.148Z,30.88
2019-05-17T01:44:47.787Z,29.18
2019-05-17T01:47:17.458Z,38.73
2019-05-17T01:49:47.133Z,42.30
2019-05-17T01:52:16.948Z,35.28
2019-05-17T01:54:47.056Z,31.52
2019-05-17T01:57:17.027Z,27.42
2019-05-17T01:59:46.859Z,27.22
2019-05-17T02:02:18.125Z,31.65
2019-05-17T02:04:47.765Z,30.37
2019-05-17T02:07:17.429Z,28.55
2019-05-17T02:09:47.652Z,24.50
2019-05-17T02:12:17.510Z,24.05
2019-05-17T02:14:47.411Z,23.73
2019-05-17T02:17:17.515Z,24.35
2019-05-17T02:19:47.212Z,27.67
2019-05-17T02:22:16.939Z,28.85
2019-05-17T02:24:46.607Z,24.95
2019-05-17T02:27:16.489Z,25.02
2019-05-17T02:29:46.152Z,25.50
2019-05-17T02:32:15.969Z,29.50
2019-05-17T02:34:45.634Z,21.93
2019-05-17T02:37:15.273Z,23.38
2019-05-17T02:40:01.573Z,24.45
2019-05-17T02:42:17.347Z,26.35
2019-05-17T02:44:47.015Z,23.50
2019-05-17T02:47:16.651Z,25.65
2019-05-17T02:49:46.309Z,24.18
2019-05-17T02:52:15.938Z,26.20
2019-05-17T02:54:45.603Z,23.67
2019-05-17T02:57:15.258Z,26.17
2019-05-17T02:59:44.907Z,26.90
2019-05-17T03:02:14.539Z,29.90
2019-05-17T03:04:44.309Z,26.02
2019-05-17T03:07:13.967Z,28.52
2019-05-17T03:09:43.604Z,29.65
2019-05-17T03:12:13.265Z,27.90
2019-05-17T03:14:43.439Z,27.10
2019-05-17T03:17:14.128Z,26.37
2019-05-17T03:19:43.971Z,26.15
2019-05-17T03:22:13.593Z,24.32
2019-05-17T03:24:43.885Z,26.30
2019-05-17T03:27:13.948Z,25.43
2019-05-17T03:29:43.610Z,29.42
2019-05-17T03:32:16.939Z,25.17
2019-05-17T03:34:47.602Z,28.55
2019-05-17T03:37:17.287Z,27.85
2019-05-17T03:39:46.983Z,30.48
2019-05-17T03:42:16.635Z,30.80
2019-05-17T03:44:46.286Z,30.92
2019-05-17T03:47:15.981Z,27.62
2019-05-17T03:49:45.648Z,27.48
2019-05-17T03:52:15.283Z,25.68
2019-05-17T03:54:44.938Z,29.40
2019-05-17T03:57:14.645Z,32.83
2019-05-17T03:59:44.317Z,26.42
2019-05-17T04:02:13.965Z,27.70
2019-05-17T04:04:43.631Z,26.85
2019-05-17T04:07:13.276Z,28.07
2019-05-17T04:09:43.688Z,25.12
2019-05-17T04:12:13.829Z,24.30
2019-05-17T04:14:43.611Z,26.97
2019-05-17T04:17:13.453Z,25.75
2019-05-17T04:19:43.127Z,29.32
2019-05-17T04:22:13.896Z,25.75
2019-05-17T04:24:44.104Z,28.98
2019-05-17T04:27:13.875Z,27.50
2019-05-17T04:29:43.557Z,31.30
2019-05-17T04:32:13.265Z,27.90
2019-05-17T04:34:43.736Z,30.55
2019-05-17T04:37:13.545Z,33.50
2019-05-17T04:39:43.466Z,32.33
2019-05-17T04:42:13.748Z,42.40
2019-05-17T04:44:43.527Z,33.42
2019-05-17T04:47:13.535Z,32.73
2019-05-17T04:49:44.153Z,31.90
2019-05-17T04:52:14.135Z,30.12
2019-05-17T04:54:55.897Z,34.08
2019-05-17T04:57:27.032Z,32.08
2019-05-17T04:59:56.737Z,33.35
2019-05-17T05:02:26.801Z,30.40
2019-05-17T05:05:07.570Z,30.75
2019-05-17T05:07:37.786Z,31.68
2019-05-17T05:10:07.611Z,33.67
2019-05-17T05:12:37.307Z,29.50
2019-05-17T05:15:07.993Z,31.73
2019-05-17T05:17:37.682Z,34.30
2019-05-17T05:20:08.070Z,32.88
2019-05-17T05:22:37.786Z,31.02
2019-05-17T05:25:08.071Z,32.30
2019-05-17T05:27:37.750Z,33.92
2019-05-17T05:30:07.727Z,32.73
2019-05-17T05:32:37.404Z,34.08
2019-05-17T05:35:08.183Z,30.40
2019-05-17T05:37:37.861Z,32.50
2019-05-17T05:40:08.248Z,32.20
2019-05-17T05:42:37.922Z,30.50
2019-05-17T05:45:07.802Z,24.65
2019-05-17T05:47:37.467Z,24.27
2019-05-17T05:50:07.542Z,26.82
2019-05-17T05:52:37.212Z,23.40
2019-05-17T05:55:08.681Z,19.60
2019-05-17T05:57:38.333Z,19.87
2019-05-17T06:00:13.251Z,19.95
2019-05-17T06:02:42.961Z,16.00
2019-05-17T06:05:16.946Z,17.37
2019-05-17T06:07:44.376Z,17.10
2019-05-17T06:10:14.452Z,16.95
2019-05-17T06:12:44.533Z,16.80
2019-05-17T06:15:14.509Z,17.77
2019-05-17T06:17:44.173Z,13.83
2019-05-17T06:20:14.076Z,13.65
2019-05-17T06:22:43.756Z,14.43
2019-05-17T06:25:15.594Z,14.45
2019-05-17T06:27:44.966Z,14.80
2019-05-17T06:30:15.040Z,20.17
2019-05-17T06:32:45.872Z,18.40
2019-05-17T06:35:15.645Z,20.52
2019-05-17T06:37:45.416Z,21.10
2019-05-17T06:40:15.285Z,20.20
2019-05-17T06:42:45.764Z,20.68
2019-05-17T06:45:18.403Z,19.23
2019-05-17T06:47:51.746Z,21.17
2019-05-17T06:50:23.478Z,21.87
2019-05-17T06:52:53.860Z,23.45
2019-05-17T06:55:24.326Z,19.32
2019-05-17T06:57:54.614Z,20.65
2019-05-17T07:00:24.562Z,20.10
2019-05-17T07:02:54.672Z,17.87
2019-05-17T07:05:29.357Z,17.52
2019-05-17T07:08:00.254Z,22.05
2019-05-17T07:10:30.249Z,18.52
2019-05-17T07:13:01.888Z,21.42
2019-05-17T07:15:43.647Z,19.02
2019-05-17T07:18:02.993Z,22.55
2019-05-17T07:20:32.627Z,19.05
2019-05-17T07:23:02.492Z,24.15
2019-05-17T07:25:32.236Z,19.42
2019-05-17T07:28:01.917Z,18.05
2019-05-17T07:30:31.542Z,18.70
2019-05-17T07:33:01.314Z,17.05
2019-05-17T07:35:30.934Z,17.62
2019-05-17T07:38:00.623Z,17.55
2019-05-17T07:40:30.572Z,19.35
2019-05-17T07:43:10.681Z,23.00
2019-05-17T07:45:31.741Z,26.10
2019-05-17T07:48:01.424Z,22.60
2019-05-17T07:50:31.061Z,19.20
2019-05-17T07:53:05.250Z,19.62
2019-05-17T07:55:34.887Z,20.05
2019-05-17T07:58:04.552Z,20.68
2019-05-17T08:00:34.231Z,24.50
2019-05-17T08:03:03.903Z,24.55
2019-05-17T08:05:33.840Z,20.50
2019-05-17T08:08:03.555Z,18.30
2019-05-17T08:10:33.226Z,23.62
2019-05-17T08:13:02.895Z,21.45
2019-05-17T08:15:32.545Z,21.80
2019-05-17T08:18:02.182Z,20.17
2019-05-17T08:20:33.863Z,18.80
2019-05-17T08:23:05.160Z,24.18
2019-05-17T08:25:48.754Z,19.75
2019-05-17T08:28:06.476Z,19.45
2019-05-17T08:30:36.355Z,22.90
2019-05-17T08:33:05.993Z,19.17
2019-05-17T08:35:35.669Z,20.35
2019-05-17T08:38:05.426Z,22.85
2019-05-17T08:40:35.091Z,17.15
2019-05-17T08:43:04.725Z,19.07
2019-05-17T08:45:34.405Z,20.05
2019-05-17T08:48:04.062Z,21.82
2019-05-17T08:50:33.728Z,17.95
2019-05-17T08:53:03.362Z,20.40
2019-05-17T08:55:33.038Z,20.97
2019-05-17T08:58:02.699Z,19.90
2019-05-17T09:00:32.412Z,20.70
2019-05-17T09:03:02.050Z,18.82
2019-05-17T09:05:31.750Z,21.02
2019-05-17T09:08:01.387Z,20.15
2019-05-17T09:10:31.164Z,17.73
2019-05-17T09:13:01.007Z,19.17
2019-05-17T09:15:30.769Z,16.95
2019-05-17T09:18:00.415Z,18.73
2019-05-17T09:20:30.086Z,17.60
2019-05-17T09:23:00.150Z,17.52
2019-05-17T09:25:30.361Z,17.67
2019-05-17T09:28:00.714Z,19.15
2019-05-17T09:30:31.396Z,16.87
2019-05-17T09:33:01.168Z,19.98
2019-05-17T09:35:30.950Z,19.35
2019-05-17T09:38:00.707Z,18.65
2019-05-17T09:40:30.380Z,18.82
2019-05-17T09:43:00.579Z,23.75
2019-05-17T09:45:31.169Z,19.07
2019-05-17T09:48:00.881Z,17.82
2019-05-17T09:50:30.888Z,20.12
2019-05-17T09:53:00.536Z,20.08
2019-05-17T09:55:30.314Z,17.92
2019-05-17T09:58:00.357Z,19.73
2019-05-17T10:00:31.217Z,19.98
2019-05-17T10:03:00.863Z,20.20
2019-05-17T10:05:31.288Z,23.80
2019-05-17T10:08:00.952Z,21.75
2019-05-17T10:10:30.966Z,20.17
2019-05-17T10:13:00.604Z,21.25
2019-05-17T10:15:30.853Z,20.70
2019-05-17T10:18:00.730Z,19.70
2019-05-17T10:20:30.436Z,24.18
2019-05-17T10:23:00.075Z,19.87
2019-05-17T10:25:29.766Z,17.50
2019-05-17T10:28:00.569Z,18.27
2019-05-17T10:30:31.020Z,20.90
2019-05-17T10:33:00.748Z,19.37
2019-05-17T10:35:30.419Z,23.90
2019-05-17T10:38:00.203Z,28.67
2019-05-17T10:40:30.042Z,22.22
2019-05-17T10:43:00.771Z,20.48
2019-05-17T10:45:30.686Z,20.97
2019-05-17T10:48:00.870Z,21.93
2019-05-17T10:50:30.492Z,20.77
2019-05-17T10:53:00.568Z,21.10
2019-05-17T10:55:30.515Z,20.50
2019-05-17T10:58:00.558Z,20.97
2019-05-17T11:00:30.515Z,21.93
2019-05-17T11:03:00.602Z,21.02
2019-05-17T11:05:30.926Z,21.00
2019-05-17T11:08:00.685Z,22.32
2019-05-17T11:10:30.345Z,23.05
2019-05-17T11:12:59.987Z,20.48
2019-05-17T11:15:29.636Z,21.00
2019-05-17T11:17:59.322Z,21.52
2019-05-17T11:20:30.666Z,22.73
2019-05-17T11:23:00.344Z,23.00
2019-05-17T11:25:29.985Z,20.60
2019-05-17T11:27:59.967Z,21.10
2019-05-17T11:30:29.607Z,21.15
2019-05-17T11:32:59.294Z,21.10
2019-05-17T11:35:28.901Z,21.55
2019-05-17T11:37:58.672Z,27.22
2019-05-17T11:40:28.636Z,22.45
2019-05-17T11:42:58.389Z,20.97
2019-05-17T11:45:32.480Z,21.73
2019-05-17T11:48:00.077Z,22.73
2019-05-17T11:50:29.734Z,19.80
2019-05-17T11:52:59.869Z,22.30
2019-05-17T11:55:29.565Z,19.12
2019-05-17T11:57:59.330Z,22.35
2019-05-17T12:00:29.213Z,19.55
2019-05-17T12:02:59.171Z,23.15
2019-05-17T12:05:28.907Z,20.62
2019-05-17T12:07:58.570Z,17.25
2019-05-17T12:10:28.607Z,19.55
2019-05-17T12:12:58.851Z,19.48
2019-05-17T12:15:43.640Z,24.07
2019-05-17T12:18:00.125Z,19.32
2019-05-17T12:20:29.757Z,19.98
2019-05-17T12:22:59.453Z,21.73
2019-05-17T12:25:30.267Z,17.75
2019-05-17T12:28:01.221Z,15.65
2019-05-17T12:30:30.873Z,16.57
2019-05-17T12:33:00.542Z,18.32
2019-05-17T12:35:30.188Z,19.05
2019-05-17T12:38:01.485Z,18.60
2019-05-17T12:40:31.137Z,19.25
2019-05-17T12:43:00.908Z,23.50
2019-05-17T12:45:30.657Z,20.80
2019-05-17T12:48:00.460Z,21.42
2019-05-17T12:50:30.141Z,20.08
2019-05-17T12:53:00.021Z,20.08
2019-05-17T12:55:29.762Z,24.23
2019-05-17T12:57:59.444Z,19.90
2019-05-17T13:00:29.514Z,30.77
2019-05-17T13:03:01.120Z,25.10
2019-05-17T13:05:30.960Z,25.30
2019-05-17T13:08:00.842Z,20.15
2019-05-17T13:10:30.484Z,18.27
2019-05-17T13:13:00.355Z,19.40
2019-05-17T13:15:30.093Z,21.50
2019-05-17T13:18:00.010Z,23.07
2019-05-17T13:20:29.653Z,27.55
2019-05-17T13:22:59.320Z,16.50
2019-05-17T13:25:29.512Z,17.30
2019-05-17T13:27:59.193Z,16.70
2019-05-17T13:30:28.834Z,16.93
2019-05-17T13:32:58.511Z,17.87
2019-05-17T13:35:28.150Z,19.10
2019-05-17T13:37:58.127Z,15.78
2019-05-17T13:40:27.932Z,15.95
2019-05-17T13:42:58.129Z,18.85
2019-05-17T13:45:28.089Z,16.65
2019-05-17T13:47:59.336Z,19.20
2019-05-17T13:50:30.449Z,19.50
2019-05-17T13:53:00.173Z,22.67
2019-05-17T13:55:30.152Z,20.40
2019-05-17T13:58:00.208Z,17.12
2019-05-17T14:00:30.149Z,17.67
2019-05-17T14:02:59.786Z,24.12
2019-05-17T14:05:29.574Z,20.77
2019-05-17T14:07:59.221Z,18.82
2019-05-17T14:10:32.110Z,21.82
2019-05-17T14:13:00.342Z,20.88
2019-05-17T14:15:30.436Z,14.23
2019-05-17T14:18:00.076Z,16.87
2019-05-17T14:20:29.841Z,14.90
2019-05-17T14:22:59.675Z,18.30
2019-05-17T14:25:30.870Z,16.52
2019-05-17T14:28:00.650Z,14.03
2019-05-17T14:30:30.577Z,16.10
2019-05-17T14:33:00.312Z,17.60
2019-05-17T14:35:32.695Z,14.18
2019-05-17T14:38:03.393Z,16.57
2019-05-17T14:41:04.995Z,16.93
2019-05-17T14:43:07.567Z,13.78
2019-05-17T14:45:39.053Z,18.05
2019-05-17T14:48:10.642Z,15.95
2019-05-17T14:50:40.346Z,13.00
2019-05-17T14:53:13.662Z,14.30
2019-05-17T14:55:44.862Z,18.60
2019-05-17T14:58:14.500Z,14.47
2019-05-17T15:00:44.170Z,15.25
2019-05-17T15:03:13.804Z,20.60
2019-05-17T15:05:43.474Z,16.90
2019-05-17T15:08:13.124Z,14.20
2019-05-17T15:10:42.950Z,15.32
2019-05-17T15:13:12.603Z,14.70
2019-05-17T15:15:42.271Z,15.50
2019-05-17T15:18:11.940Z,14.50
2019-05-17T15:20:41.576Z,16.95
2019-05-17T15:23:11.305Z,16.62
2019-05-17T15:25:40.983Z,14.30
2019-05-17T15:28:10.621Z,16.10
2019-05-17T15:30:40.286Z,16.80
2019-05-17T15:33:09.923Z,14.70
2019-05-17T15:35:39.793Z,15.93
2019-05-17T15:38:11.249Z,14.68
2019-05-17T15:40:40.954Z,18.62
2019-05-17T15:43:10.599Z,18.15
2019-05-17T15:45:40.278Z,16.30
2019-05-17T15:48:10.157Z,16.12
2019-05-17T15:50:39.869Z,16.23
2019-05-17T15:53:09.495Z,13.62
2019-05-17T15:55:39.155Z,12.43
2019-05-17T15:58:08.786Z,13.75
2019-05-17T16:00:38.479Z,13.62
2019-05-17T16:03:08.101Z,17.80
2019-05-17T16:05:37.762Z,20.92
2019-05-17T16:08:07.488Z,16.15
2019-05-17T16:10:37.162Z,11.53
2019-05-17T16:13:06.785Z,12.90
2019-05-17T16:15:36.657Z,13.10
2019-05-17T16:18:06.284Z,14.70
2019-05-17T16:20:35.944Z,13.95
2019-05-17T16:23:05.580Z,14.03
2019-05-17T16:25:35.253Z,13.30
2019-05-17T16:28:04.888Z,15.95
2019-05-17T16:30:34.550Z,13.90
2019-05-17T16:33:04.184Z,13.45
2019-05-17T16:35:33.853Z,12.43
2019-05-17T16:38:03.484Z,12.73
2019-05-17T16:40:33.149Z,13.18
2019-05-17T16:43:17.221Z,14.73
2019-05-17T16:45:34.690Z,13.83
2019-05-17T16:48:04.432Z,17.52
2019-05-17T16:50:34.060Z,12.37
2019-05-17T16:53:06.348Z,15.55
2019-05-17T16:55:36.205Z,20.52
2019-05-17T16:58:05.879Z,15.50
2019-05-17T17:00:41.415Z,17.98
2019-05-17T17:03:11.155Z,19.62
2019-05-17T17:05:40.894Z,22.37
2019-05-17T17:08:10.565Z,22.17
2019-05-17T17:10:40.196Z,18.23
2019-05-17T17:13:09.862Z,23.40
2019-05-17T17:15:39.497Z,17.75
2019-05-17T17:18:09.280Z,14.45
2019-05-17T17:20:39.044Z,13.83
2019-05-17T17:23:08.730Z,16.52
2019-05-17T17:25:38.547Z,23.98
2019-05-17T17:28:08.219Z,25.10
2019-05-17T17:30:37.863Z,21.93
2019-05-17T17:33:07.552Z,21.87
2019-05-17T17:35:37.280Z,23.07
2019-05-17T17:38:06.961Z,18.70
2019-05-17T17:40:36.670Z,24.00
2019-05-17T17:43:06.338Z,22.55
2019-05-17T17:45:35.975Z,20.80
2019-05-17T17:48:05.797Z,24.15
2019-05-17T17:50:35.565Z,26.33
2019-05-17T17:53:06.663Z,24.52
2019-05-17T17:55:36.878Z,25.65
2019-05-17T17:58:06.676Z,25.65
2019-05-17T18:00:36.326Z,25.45
2019-05-17T18:03:05.995Z,31.05
2019-05-17T18:05:35.827Z,33.90
2019-05-17T18:08:05.489Z,57.33
2019-05-17T18:10:35.697Z,76.65
2019-05-17T18:13:05.466Z,63.05
2019-05-17T18:15:43.626Z,65.70
2019-05-17T18:18:13.827Z,44.58
2019-05-17T18:20:43.802Z,41.50
2019-05-17T18:23:13.478Z,45.23
2019-05-17T18:25:43.115Z,52.58
2019-05-17T18:28:12.878Z,66.72
2019-05-17T18:30:42.522Z,63.17
2019-05-17T18:33:12.267Z,65.92
2019-05-17T18:35:42.168Z,65.30
2019-05-17T18:38:11.852Z,53.08
2019-05-17T18:40:41.470Z,45.05
2019-05-17T18:43:11.130Z,45.08
2019-05-17T18:45:40.797Z,49.08
2019-05-17T18:48:10.521Z,50.30
2019-05-17T18:50:40.268Z,52.43
2019-05-17T18:53:16.552Z,50.75
2019-05-17T18:55:41.331Z,51.33
2019-05-17T18:58:10.996Z,46.90
2019-05-17T19:00:40.641Z,40.23
2019-05-17T19:03:10.301Z,47.08
2019-05-17T19:05:39.930Z,74.58
2019-05-17T19:08:09.592Z,70.97
2019-05-17T19:10:39.232Z,76.45
2019-05-17T19:13:08.901Z,100.00
2019-05-17T19:15:38.642Z,57.65
2019-05-17T19:18:08.408Z,34.78
2019-05-17T19:20:38.041Z,24.85
2019-05-17T19:23:07.706Z,31.20
2019-05-17T19:25:37.344Z,24.70
2019-05-17T19:28:07.013Z,21.27
2019-05-17T19:30:36.826Z,23.20
2019-05-17T19:33:06.960Z,24.00
2019-05-17T19:35:36.590Z,22.02
2019-05-17T19:38:06.259Z,25.20
2019-05-17T19:40:35.899Z,30.15
2019-05-17T19:43:05.574Z,34.23
2019-05-17T19:45:35.306Z,37.45
2019-05-17T19:48:04.980Z,41.63
2019-05-17T19:50:34.664Z,97.15
2019-05-17T19:53:04.370Z,152.05
2019-05-17T19:55:34.039Z,127.07
2019-05-17T19:58:03.677Z,194.77
2019-05-17T20:00:33.396Z,211.62
2019-05-17T20:03:03.044Z,160.20
2019-05-17T20:05:32.786Z,118.50
2019-05-17T20:08:02.427Z,91.42
2019-05-17T20:10:32.201Z,71.05
2019-05-17T20:25:09.068Z,43.02
2019-05-17T20:27:38.729Z,55.60
2019-05-17T20:30:09.484Z,131.78
2019-05-17T20:32:39.531Z,238.62
2019-05-17T20:35:10.905Z,213.30
2019-05-17T20:37:40.650Z,195.97
2019-05-17T20:40:10.684Z,246.82
2019-05-17T20:42:40.420Z,144.25
2019-05-17T20:45:10.830Z,111.97
2019-05-17T20:47:40.567Z,78.55
2019-05-17T20:50:10.771Z,70.28
2019-05-17T20:52:40.512Z,54.20
2019-05-17T20:55:11.214Z,59.40
2019-05-17T20:57:41.121Z,62.25
2019-05-17T21:00:11.790Z,62.58
2019-05-17T21:02:41.484Z,78.57
2019-05-17T21:05:16.059Z,58.50
2019-05-17T21:07:46.227Z,46.85
2019-05-17T21:10:16.062Z,42.13
2019-05-17T21:12:45.794Z,50.15
2019-05-17T21:15:15.464Z,48.75
2019-05-17T21:17:45.096Z,50.23
2019-05-17T21:20:15.402Z,49.73
2019-05-17T21:22:45.125Z,52.88
2019-05-17T21:25:15.626Z,49.05
2019-05-17T21:27:45.257Z,43.40
2019-05-17T21:30:15.267Z,46.70
2019-05-17T21:32:44.910Z,55.78
2019-05-17T21:35:14.704Z,72.67
2019-05-17T21:37:44.334Z,75.72
2019-05-17T21:40:14.554Z,76.87
2019-05-17T21:42:44.173Z,65.72
2019-05-17T21:45:13.972Z,65.87
2019-05-17T21:47:43.605Z,61.08
2019-05-17T21:50:14.011Z,80.70
2019-05-17T21:52:43.645Z,90.87
2019-05-17T21:55:13.441Z,83.67
2019-05-17T21:57:43.081Z,74.25
2019-05-17T22:00:15.862Z,81.65
2019-05-17T22:02:45.502Z,75.70
2019-05-17T22:05:15.172Z,80.75
2019-05-17T22:07:44.877Z,66.57
2019-05-17T22:10:14.712Z,59.60
2019-05-17T22:12:44.338Z,58.17
2019-05-17T22:15:13.998Z,51.73
2019-05-17T22:17:43.639Z,53.85
2019-05-17T22:20:13.567Z,55.17
2019-05-17T22:22:43.198Z,57.70
2019-05-17T22:25:12.935Z,78.75
2019-05-17T22:27:42.596Z,72.75
2019-05-17T22:30:12.824Z,77.25
2019-05-17T22:32:42.478Z,61.05
2019-05-17T22:35:12.258Z,62.00
2019-05-17T22:37:41.933Z,59.65
2019-05-17T22:40:11.652Z,58.33
2019-05-17T22:42:41.301Z,57.58
2019-05-17T22:45:12.445Z,54.53
2019-05-17T22:47:42.101Z,50.12
2019-05-17T22:50:11.875Z,50.38
2019-05-17T22:52:41.639Z,48.85
2019-05-17T22:55:11.421Z,50.73
2019-05-17T22:57:41.076Z,50.28
2019-05-17T23:00:11.048Z,46.75
2019-05-17T23:02:40.808Z,45.30
2019-05-17T23:05:10.752Z,46.20
2019-05-17T23:07:40.529Z,41.25
2019-05-17T23:10:10.434Z,47.08
2019-05-17T23:12:40.295Z,45.80
2019-05-17T23:15:10.369Z,41.83
2019-05-17T23:17:40.138Z,47.50
2019-05-17T23:20:09.941Z,41.98
2019-05-17T23:22:39.711Z,46.77
2019-05-17T23:25:10.104Z,46.02
2019-05-17T23:27:39.866Z,44.42
2019-05-17T23:30:09.841Z,47.40
2019-05-17T23:32:39.575Z,40.73
2019-05-17T23:35:09.731Z,45.70
2019-05-17T23:37:39.412Z,43.13
2019-05-17T23:40:09.791Z,39.65
2019-05-17T23:42:39.441Z,37.73
2019-05-17T23:45:09.670Z,39.45
2019-05-17T23:47:39.336Z,40.70
2019-05-17T23:50:09.214Z,40.58
2019-05-17T23:52:38.878Z,42.95
2019-05-17T23:55:09.051Z,45.75
2019-05-17T23:57:38.709Z,41.10
